Аэропорт: Элиста. Элиста

ICAO: URWI

METAR:
2018/07/22 20:00
URWI 222000Z AUTO 28004MPS 9999 // ///100/// 23/19 Q1007
METAR:
2018/07/15 12:12
TAF TAF URWI 151100Z 1512/1524 29003G08MPS 9999 SCT030CB 
      TEMPO 1512/1524 VRB08G15MPS 3100 -TSRAGR SCT011 BKN020CB